sensor_id;sensor_type;location;lat;lon;timestamp;P1;durP1;ratioP1;P2;durP2;ratioP2
37065;SDS011;22981;43.080;25.550;2023-03-01T00:01:26;5.58;;;4.90;;
37065;SDS011;22981;43.080;25.550;2023-03-01T00:03:55;5.80;;;4.47;;
37065;SDS011;22981;43.080;25.550;2023-03-01T00:06:24;5.78;;;4.60;;
37065;SDS011;22981;43.080;25.550;2023-03-01T00:08:52;5.12;;;3.98;;
37065;SDS011;22981;43.080;25.550;2023-03-01T00:11:21;5.33;;;4.80;;
37065;SDS011;22981;43.080;25.550;2023-03-01T00:13:51;5.85;;;4.45;;
37065;SDS011;22981;43.080;25.550;2023-03-01T00:16:24;5.42;;;4.72;;
37065;SDS011;22981;43.080;25.550;2023-03-01T00:18:51;7.50;;;5.10;;
37065;SDS011;22981;43.080;25.550;2023-03-01T00:21:19;8.73;;;6.33;;
37065;SDS011;22981;43.080;25.550;2023-03-01T00:23:47;9.40;;;6.85;;
37065;SDS011;22981;43.080;25.550;2023-03-01T00:26:16;5.40;;;4.60;;
37065;SDS011;22981;43.080;25.550;2023-03-01T00:28:45;5.90;;;4.42;;
37065;SDS011;22981;43.080;25.550;2023-03-01T00:31:14;4.50;;;4.03;;
37065;SDS011;22981;43.080;25.550;2023-03-01T00:33:43;4.28;;;3.85;;
37065;SDS011;22981;43.080;25.550;2023-03-01T00:36:12;4.37;;;3.58;;
37065;SDS011;22981;43.080;25.550;2023-03-01T00:38:41;3.52;;;3.10;;
37065;SDS011;22981;43.080;25.550;2023-03-01T00:41:12;4.58;;;3.92;;
37065;SDS011;22981;43.080;25.550;2023-03-01T00:43:41;4.22;;;3.80;;
37065;SDS011;22981;43.080;25.550;2023-03-01T00:46:14;5.40;;;3.12;;
37065;SDS011;22981;43.080;25.550;2023-03-01T00:48:42;2.58;;;2.37;;
37065;SDS011;22981;43.080;25.550;2023-03-01T00:51:32;3.17;;;2.52;;
37065;SDS011;22981;43.080;25.550;2023-03-01T00:53:44;2.85;;;2.45;;
37065;SDS011;22981;43.080;25.550;2023-03-01T00:56:13;3.62;;;2.90;;
37065;SDS011;22981;43.080;25.550;2023-03-01T00:58:41;3.35;;;2.72;;
37065;SDS011;22981;43.080;25.550;2023-03-01T01:01:10;3.70;;;2.95;;
37065;SDS011;22981;43.080;25.550;2023-03-01T01:03:46;3.20;;;2.85;;
37065;SDS011;22981;43.080;25.550;2023-03-01T01:06:16;3.98;;;3.40;;
37065;SDS011;22981;43.080;25.550;2023-03-01T01:08:48;3.60;;;3.30;;
37065;SDS011;22981;43.080;25.550;2023-03-01T01:11:17;3.50;;;3.08;;
37065;SDS011;22981;43.080;25.550;2023-03-01T01:13:46;3.65;;;3.35;;
37065;SDS011;22981;43.080;25.550;2023-03-01T01:16:15;3.55;;;3.25;;
37065;SDS011;22981;43.080;25.550;2023-03-01T01:18:44;3.70;;;3.40;;
37065;SDS011;22981;43.080;25.550;2023-03-01T01:21:13;4.00;;;3.60;;
37065;SDS011;22981;43.080;25.550;2023-03-01T01:23:42;4.35;;;3.95;;
37065;SDS011;22981;43.080;25.550;2023-03-01T01:26:13;4.45;;;4.00;;
37065;SDS011;22981;43.080;25.550;2023-03-01T01:28:42;4.03;;;3.30;;
37065;SDS011;22981;43.080;25.550;2023-03-01T01:31:09;4.40;;;4.00;;
37065;SDS011;22981;43.080;25.550;2023-03-01T01:33:37;4.62;;;4.12;;
37065;SDS011;22981;43.080;25.550;2023-03-01T01:36:05;7.00;;;5.58;;
37065;SDS011;22981;43.080;25.550;2023-03-01T01:38:34;6.05;;;5.00;;
37065;SDS011;22981;43.080;25.550;2023-03-01T01:41:03;5.22;;;4.72;;
37065;SDS011;22981;43.080;25.550;2023-03-01T01:43:35;6.22;;;5.20;;
37065;SDS011;22981;43.080;25.550;2023-03-01T01:46:10;5.20;;;4.70;;
37065;SDS011;22981;43.080;25.550;2023-03-01T01:51:37;5.67;;;3.83;;
37065;SDS011;22981;43.080;25.550;2023-03-01T01:54:03;4.17;;;3.60;;
37065;SDS011;22981;43.080;25.550;2023-03-01T01:56:33;7.17;;;5.00;;
37065;SDS011;22981;43.080;25.550;2023-03-01T01:59:02;4.85;;;4.35;;
37065;SDS011;22981;43.080;25.550;2023-03-01T02:01:30;5.58;;;4.87;;
37065;SDS011;22981;43.080;25.550;2023-03-01T02:03:57;5.22;;;4.72;;
37065;SDS011;22981;43.080;25.550;2023-03-01T02:06:33;5.53;;;4.78;;
37065;SDS011;22981;43.080;25.550;2023-03-01T02:09:04;4.97;;;4.45;;
37065;SDS011;22981;43.080;25.550;2023-03-01T02:11:35;6.10;;;5.40;;
37065;SDS011;22981;43.080;25.550;2023-03-01T02:14:04;6.08;;;5.40;;
37065;SDS011;22981;43.080;25.550;2023-03-01T02:16:31;7.20;;;6.50;;
37065;SDS011;22981;43.080;25.550;2023-03-01T02:18:59;6.97;;;6.28;;
37065;SDS011;22981;43.080;25.550;2023-03-01T02:24:19;7.90;;;6.83;;
37065;SDS011;22981;43.080;25.550;2023-03-01T02:26:45;5.95;;;5.35;;
37065;SDS011;22981;43.080;25.550;2023-03-01T02:29:13;8.60;;;7.70;;
37065;SDS011;22981;43.080;25.550;2023-03-01T02:31:41;9.10;;;8.00;;
37065;SDS011;22981;43.080;25.550;2023-03-01T02:34:10;8.38;;;7.22;;
37065;SDS011;22981;43.080;25.550;2023-03-01T02:36:44;9.75;;;6.78;;
37065;SDS011;22981;43.080;25.550;2023-03-01T02:39:26;8.03;;;6.17;;
37065;SDS011;22981;43.080;25.550;2023-03-01T02:41:58;7.30;;;6.33;;
37065;SDS011;22981;43.080;25.550;2023-03-01T02:44:28;9.38;;;6.17;;
37065;SDS011;22981;43.080;25.550;2023-03-01T02:46:56;7.17;;;6.45;;
37065;SDS011;22981;43.080;25.550;2023-03-01T02:49:26;6.85;;;6.08;;
37065;SDS011;22981;43.080;25.550;2023-03-01T02:54:55;11.12;;;10.03;;
37065;SDS011;22981;43.080;25.550;2023-03-01T02:57:23;10.00;;;8.50;;
37065;SDS011;22981;43.080;25.550;2023-03-01T02:59:53;10.72;;;8.78;;
37065;SDS011;22981;43.080;25.550;2023-03-01T03:02:27;9.55;;;8.48;;
37065;SDS011;22981;43.080;25.550;2023-03-01T03:05:12;12.28;;;10.90;;
37065;SDS011;22981;43.080;25.550;2023-03-01T03:07:39;10.82;;;9.30;;
37065;SDS011;22981;43.080;25.550;2023-03-01T03:10:10;10.65;;;8.40;;
37065;SDS011;22981;43.080;25.550;2023-03-01T03:12:39;12.05;;;10.82;;
37065;SDS011;22981;43.080;25.550;2023-03-01T03:15:08;10.32;;;9.20;;
37065;SDS011;22981;43.080;25.550;2023-03-01T03:17:38;12.33;;;9.65;;
37065;SDS011;22981;43.080;25.550;2023-03-01T03:20:08;14.10;;;11.60;;
37065;SDS011;22981;43.080;25.550;2023-03-01T03:22:38;16.30;;;12.07;;
37065;SDS011;22981;43.080;25.550;2023-03-01T03:25:06;12.45;;;10.10;;
37065;SDS011;22981;43.080;25.550;2023-03-01T03:27:39;13.43;;;11.15;;
37065;SDS011;22981;43.080;25.550;2023-03-01T03:30:10;11.03;;;8.93;;
37065;SDS011;22981;43.080;25.550;2023-03-01T03:32:40;17.00;;;9.98;;
37065;SDS011;22981;43.080;25.550;2023-03-01T03:35:11;15.43;;;9.75;;
37065;SDS011;22981;43.080;25.550;2023-03-01T03:37:39;13.88;;;9.73;;
37065;SDS011;22981;43.080;25.550;2023-03-01T03:40:25;25.48;;;12.60;;
37065;SDS011;22981;43.080;25.550;2023-03-01T03:45:58;14.15;;;9.83;;
37065;SDS011;22981;43.080;25.550;2023-03-01T03:48:26;26.42;;;9.48;;
37065;SDS011;22981;43.080;25.550;2023-03-01T03:50:54;15.32;;;9.65;;
37065;SDS011;22981;43.080;25.550;2023-03-01T03:53:23;24.02;;;10.43;;
37065;SDS011;22981;43.080;25.550;2023-03-01T03:55:52;18.25;;;9.90;;
37065;SDS011;22981;43.080;25.550;2023-03-01T03:58:38;14.95;;;9.15;;
37065;SDS011;22981;43.080;25.550;2023-03-01T04:01:06;15.80;;;9.23;;
37065;SDS011;22981;43.080;25.550;2023-03-01T04:03:51;24.65;;;9.23;;
37065;SDS011;22981;43.080;25.550;2023-03-01T04:06:20;17.37;;;10.10;;
37065;SDS011;22981;43.080;25.550;2023-03-01T04:08:48;31.52;;;13.83;;
37065;SDS011;22981;43.080;25.550;2023-03-01T04:11:16;45.05;;;17.30;;
37065;SDS011;22981;43.080;25.550;2023-03-01T04:13:55;28.65;;;12.03;;
37065;SDS011;22981;43.080;25.550;2023-03-01T04:16:24;39.78;;;17.52;;
37065;SDS011;22981;43.080;25.550;2023-03-01T04:18:52;30.45;;;16.17;;
37065;SDS011;22981;43.080;25.550;2023-03-01T04:21:19;18.10;;;11.33;;
37065;SDS011;22981;43.080;25.550;2023-03-01T04:23:47;24.72;;;11.63;;
37065;SDS011;22981;43.080;25.550;2023-03-01T04:26:17;27.73;;;14.55;;
37065;SDS011;22981;43.080;25.550;2023-03-01T04:28:45;19.62;;;14.87;;
37065;SDS011;22981;43.080;25.550;2023-03-01T04:31:16;19.57;;;13.48;;
37065;SDS011;22981;43.080;25.550;2023-03-01T04:33:53;14.65;;;9.60;;
37065;SDS011;22981;43.080;25.550;2023-03-01T04:36:26;15.32;;;10.58;;
37065;SDS011;22981;43.080;25.550;2023-03-01T04:38:55;14.58;;;10.00;;
37065;SDS011;22981;43.080;25.550;2023-03-01T04:41:24;15.30;;;10.35;;
37065;SDS011;22981;43.080;25.550;2023-03-01T04:43:52;14.03;;;10.25;;
37065;SDS011;22981;43.080;25.550;2023-03-01T04:46:20;14.93;;;11.60;;
37065;SDS011;22981;43.080;25.550;2023-03-01T04:48:48;14.70;;;11.03;;
37065;SDS011;22981;43.080;25.550;2023-03-01T04:51:15;20.00;;;14.83;;
37065;SDS011;22981;43.080;25.550;2023-03-01T04:53:43;21.20;;;14.75;;
37065;SDS011;22981;43.080;25.550;2023-03-01T04:56:12;14.03;;;11.12;;
37065;SDS011;22981;43.080;25.550;2023-03-01T04:58:40;16.52;;;13.53;;
37065;SDS011;22981;43.080;25.550;2023-03-01T05:01:09;17.00;;;12.98;;
37065;SDS011;22981;43.080;25.550;2023-03-01T05:03:40;15.03;;;11.45;;
37065;SDS011;22981;43.080;25.550;2023-03-01T05:06:11;13.80;;;11.18;;
37065;SDS011;22981;43.080;25.550;2023-03-01T05:08:41;12.40;;;10.25;;
37065;SDS011;22981;43.080;25.550;2023-03-01T05:11:09;15.98;;;12.80;;
37065;SDS011;22981;43.080;25.550;2023-03-01T05:13:38;14.85;;;13.25;;
37065;SDS011;22981;43.080;25.550;2023-03-01T05:16:06;15.93;;;12.50;;
37065;SDS011;22981;43.080;25.550;2023-03-01T05:18:36;15.00;;;12.28;;
37065;SDS011;22981;43.080;25.550;2023-03-01T05:21:10;16.80;;;13.00;;
37065;SDS011;22981;43.080;25.550;2023-03-01T05:23:34;19.20;;;13.30;;
37065;SDS011;22981;43.080;25.550;2023-03-01T05:26:03;18.45;;;14.40;;
37065;SDS011;22981;43.080;25.550;2023-03-01T05:28:32;22.70;;;17.40;;
37065;SDS011;22981;43.080;25.550;2023-03-01T05:31:00;25.80;;;19.73;;
37065;SDS011;22981;43.080;25.550;2023-03-01T05:33:27;28.35;;;21.15;;
37065;SDS011;22981;43.080;25.550;2023-03-01T05:35:59;48.00;;;29.20;;
37065;SDS011;22981;43.080;25.550;2023-03-01T05:38:26;26.93;;;20.05;;
37065;SDS011;22981;43.080;25.550;2023-03-01T05:40:54;35.80;;;25.37;;
37065;SDS011;22981;43.080;25.550;2023-03-01T05:43:21;29.48;;;21.57;;
37065;SDS011;22981;43.080;25.550;2023-03-01T05:45:49;86.55;;;53.90;;
37065;SDS011;22981;43.080;25.550;2023-03-01T05:48:16;36.65;;;26.42;;
37065;SDS011;22981;43.080;25.550;2023-03-01T05:50:45;23.55;;;20.43;;
37065;SDS011;22981;43.080;25.550;2023-03-01T05:53:14;18.77;;;16.35;;
37065;SDS011;22981;43.080;25.550;2023-03-01T05:55:44;26.57;;;23.62;;
37065;SDS011;22981;43.080;25.550;2023-03-01T05:58:16;20.50;;;15.88;;
37065;SDS011;22981;43.080;25.550;2023-03-01T06:00:46;17.85;;;14.93;;
37065;SDS011;22981;43.080;25.550;2023-03-01T06:03:15;18.80;;;15.43;;
37065;SDS011;22981;43.080;25.550;2023-03-01T06:05:44;17.95;;;15.85;;
37065;SDS011;22981;43.080;25.550;2023-03-01T06:08:12;21.23;;;17.23;;
37065;SDS011;22981;43.080;25.550;2023-03-01T06:10:40;20.43;;;16.75;;
37065;SDS011;22981;43.080;25.550;2023-03-01T06:13:07;18.70;;;15.65;;
37065;SDS011;22981;43.080;25.550;2023-03-01T06:15:35;16.75;;;14.20;;
37065;SDS011;22981;43.080;25.550;2023-03-01T06:18:03;18.45;;;13.35;;
37065;SDS011;22981;43.080;25.550;2023-03-01T06:20:30;17.75;;;13.65;;
37065;SDS011;22981;43.080;25.550;2023-03-01T06:22:58;25.43;;;15.08;;
37065;SDS011;22981;43.080;25.550;2023-03-01T06:25:26;38.70;;;29.20;;
37065;SDS011;22981;43.080;25.550;2023-03-01T06:27:55;23.92;;;16.97;;
37065;SDS011;22981;43.080;25.550;2023-03-01T06:30:23;15.18;;;12.05;;
37065;SDS011;22981;43.080;25.550;2023-03-01T06:32:52;14.80;;;11.60;;
37065;SDS011;22981;43.080;25.550;2023-03-01T06:35:21;18.23;;;13.58;;
37065;SDS011;22981;43.080;25.550;2023-03-01T06:37:48;20.32;;;13.95;;
37065;SDS011;22981;43.080;25.550;2023-03-01T06:40:16;17.20;;;14.55;;
37065;SDS011;22981;43.080;25.550;2023-03-01T06:42:47;16.70;;;14.73;;
37065;SDS011;22981;43.080;25.550;2023-03-01T06:45:14;21.33;;;16.55;;
37065;SDS011;22981;43.080;25.550;2023-03-01T06:47:42;36.53;;;31.07;;
37065;SDS011;22981;43.080;25.550;2023-03-01T06:50:10;25.80;;;21.97;;
37065;SDS011;22981;43.080;25.550;2023-03-01T06:52:38;19.37;;;16.12;;
37065;SDS011;22981;43.080;25.550;2023-03-01T06:55:06;24.00;;;18.95;;
37065;SDS011;22981;43.080;25.550;2023-03-01T06:57:34;26.17;;;18.95;;
37065;SDS011;22981;43.080;25.550;2023-03-01T07:00:02;26.73;;;20.97;;
37065;SDS011;22981;43.080;25.550;2023-03-01T07:02:31;21.17;;;17.75;;
37065;SDS011;22981;43.080;25.550;2023-03-01T07:04:58;24.30;;;18.42;;
37065;SDS011;22981;43.080;25.550;2023-03-01T07:07:26;31.48;;;22.48;;
37065;SDS011;22981;43.080;25.550;2023-03-01T07:09:53;39.63;;;27.87;;
37065;SDS011;22981;43.080;25.550;2023-03-01T07:12:22;42.45;;;31.90;;
37065;SDS011;22981;43.080;25.550;2023-03-01T07:14:52;20.27;;;16.95;;
37065;SDS011;22981;43.080;25.550;2023-03-01T07:17:19;24.45;;;21.80;;
37065;SDS011;22981;43.080;25.550;2023-03-01T07:19:47;20.52;;;16.70;;
37065;SDS011;22981;43.080;25.550;2023-03-01T07:22:15;18.60;;;13.75;;
37065;SDS011;22981;43.080;25.550;2023-03-01T07:24:42;15.55;;;12.58;;
37065;SDS011;22981;43.080;25.550;2023-03-01T07:27:10;15.40;;;13.08;;
37065;SDS011;22981;43.080;25.550;2023-03-01T07:29:38;17.87;;;13.62;;
37065;SDS011;22981;43.080;25.550;2023-03-01T07:32:05;14.65;;;12.35;;
37065;SDS011;22981;43.080;25.550;2023-03-01T07:34:33;15.25;;;12.10;;
37065;SDS011;22981;43.080;25.550;2023-03-01T07:37:01;13.72;;;11.78;;
37065;SDS011;22981;43.080;25.550;2023-03-01T07:39:28;11.88;;;10.20;;
37065;SDS011;22981;43.080;25.550;2023-03-01T07:41:56;15.68;;;11.12;;
37065;SDS011;22981;43.080;25.550;2023-03-01T07:44:24;15.70;;;11.48;;
37065;SDS011;22981;43.080;25.550;2023-03-01T07:46:51;15.38;;;12.43;;
37065;SDS011;22981;43.080;25.550;2023-03-01T07:49:20;26.15;;;23.12;;
37065;SDS011;22981;43.080;25.550;2023-03-01T07:51:48;20.97;;;17.50;;
37065;SDS011;22981;43.080;25.550;2023-03-01T07:54:16;29.67;;;25.75;;
37065;SDS011;22981;43.080;25.550;2023-03-01T07:56:44;23.77;;;19.80;;
37065;SDS011;22981;43.080;25.550;2023-03-01T07:59:11;36.83;;;32.83;;
37065;SDS011;22981;43.080;25.550;2023-03-01T08:01:39;25.23;;;22.58;;
37065;SDS011;22981;43.080;25.550;2023-03-01T08:04:07;22.82;;;20.00;;
37065;SDS011;22981;43.080;25.550;2023-03-01T08:06:36;16.73;;;13.95;;
37065;SDS011;22981;43.080;25.550;2023-03-01T08:09:03;18.27;;;16.35;;
37065;SDS011;22981;43.080;25.550;2023-03-01T08:11:31;15.95;;;14.25;;
37065;SDS011;22981;43.080;25.550;2023-03-01T08:13:58;17.57;;;12.88;;
37065;SDS011;22981;43.080;25.550;2023-03-01T08:16:26;14.20;;;11.28;;
37065;SDS011;22981;43.080;25.550;2023-03-01T08:18:53;11.63;;;9.33;;
37065;SDS011;22981;43.080;25.550;2023-03-01T08:21:23;12.28;;;8.35;;
37065;SDS011;22981;43.080;25.550;2023-03-01T08:23:50;10.90;;;8.88;;
37065;SDS011;22981;43.080;25.550;2023-03-01T08:26:19;8.55;;;6.50;;
37065;SDS011;22981;43.080;25.550;2023-03-01T08:28:47;8.05;;;7.20;;
37065;SDS011;22981;43.080;25.550;2023-03-01T08:31:20;10.05;;;6.62;;
37065;SDS011;22981;43.080;25.550;2023-03-01T08:33:53;9.53;;;5.87;;
37065;SDS011;22981;43.080;25.550;2023-03-01T08:36:28;7.90;;;6.25;;
37065;SDS011;22981;43.080;25.550;2023-03-01T08:38:52;9.45;;;6.05;;
37065;SDS011;22981;43.080;25.550;2023-03-01T08:41:21;9.75;;;6.03;;
37065;SDS011;22981;43.080;25.550;2023-03-01T08:43:49;8.28;;;6.92;;
37065;SDS011;22981;43.080;25.550;2023-03-01T08:46:18;7.00;;;6.17;;
37065;SDS011;22981;43.080;25.550;2023-03-01T08:48:45;9.10;;;6.70;;
37065;SDS011;22981;43.080;25.550;2023-03-01T08:51:15;9.60;;;6.50;;
37065;SDS011;22981;43.080;25.550;2023-03-01T08:53:43;10.18;;;8.15;;
37065;SDS011;22981;43.080;25.550;2023-03-01T08:56:12;9.45;;;7.45;;
37065;SDS011;22981;43.080;25.550;2023-03-01T08:58:43;10.05;;;8.03;;
37065;SDS011;22981;43.080;25.550;2023-03-01T09:01:14;9.38;;;7.28;;
37065;SDS011;22981;43.080;25.550;2023-03-01T09:03:43;9.40;;;7.90;;
37065;SDS011;22981;43.080;25.550;2023-03-01T09:06:12;14.73;;;8.68;;
37065;SDS011;22981;43.080;25.550;2023-03-01T09:08:42;11.80;;;9.90;;
37065;SDS011;22981;43.080;25.550;2023-03-01T09:11:11;9.20;;;7.17;;
37065;SDS011;22981;43.080;25.550;2023-03-01T09:13:41;12.07;;;6.87;;
37065;SDS011;22981;43.080;25.550;2023-03-01T09:16:10;10.85;;;7.83;;
37065;SDS011;22981;43.080;25.550;2023-03-01T09:18:39;8.43;;;6.80;;
37065;SDS011;22981;43.080;25.550;2023-03-01T09:21:08;7.58;;;6.35;;
37065;SDS011;22981;43.080;25.550;2023-03-01T09:23:38;8.13;;;5.97;;
37065;SDS011;22981;43.080;25.550;2023-03-01T09:26:08;10.08;;;8.48;;
37065;SDS011;22981;43.080;25.550;2023-03-01T09:28:37;7.40;;;6.20;;
37065;SDS011;22981;43.080;25.550;2023-03-01T09:31:06;9.08;;;6.60;;
37065;SDS011;22981;43.080;25.550;2023-03-01T09:33:34;73.83;;;46.75;;
37065;SDS011;22981;43.080;25.550;2023-03-01T09:36:03;16.52;;;10.70;;
37065;SDS011;22981;43.080;25.550;2023-03-01T09:38:32;8.98;;;6.72;;
37065;SDS011;22981;43.080;25.550;2023-03-01T09:41:00;9.18;;;6.25;;
37065;SDS011;22981;43.080;25.550;2023-03-01T09:43:37;10.65;;;6.90;;
37065;SDS011;22981;43.080;25.550;2023-03-01T09:46:20;11.03;;;7.05;;
37065;SDS011;22981;43.080;25.550;2023-03-01T09:48:57;8.20;;;6.95;;
37065;SDS011;22981;43.080;25.550;2023-03-01T09:51:27;10.13;;;7.37;;
37065;SDS011;22981;43.080;25.550;2023-03-01T09:56:47;8.98;;;7.28;;
37065;SDS011;22981;43.080;25.550;2023-03-01T09:59:37;9.88;;;7.17;;
37065;SDS011;22981;43.080;25.550;2023-03-01T10:09:49;21.60;;;13.83;;
37065;SDS011;22981;43.080;25.550;2023-03-01T10:12:18;14.40;;;8.75;;
37065;SDS011;22981;43.080;25.550;2023-03-01T10:14:55;13.65;;;9.68;;
37065;SDS011;22981;43.080;25.550;2023-03-01T10:20:14;9.35;;;7.12;;
37065;SDS011;22981;43.080;25.550;2023-03-01T10:22:42;8.40;;;6.62;;
37065;SDS011;22981;43.080;25.550;2023-03-01T10:25:17;6.33;;;5.47;;
37065;SDS011;22981;43.080;25.550;2023-03-01T10:27:53;8.13;;;5.97;;
37065;SDS011;22981;43.080;25.550;2023-03-01T10:30:32;7.10;;;5.55;;
37065;SDS011;22981;43.080;25.550;2023-03-01T10:33:00;6.95;;;5.28;;
37065;SDS011;22981;43.080;25.550;2023-03-01T10:35:28;7.95;;;6.00;;
37065;SDS011;22981;43.080;25.550;2023-03-01T10:38:11;7.47;;;5.83;;
37065;SDS011;22981;43.080;25.550;2023-03-01T10:44:00;9.30;;;6.42;;
37065;SDS011;22981;43.080;25.550;2023-03-01T10:49:16;11.83;;;8.10;;
37065;SDS011;22981;43.080;25.550;2023-03-01T10:51:47;8.40;;;6.35;;
37065;SDS011;22981;43.080;25.550;2023-03-01T10:54:17;7.12;;;5.40;;
37065;SDS011;22981;43.080;25.550;2023-03-01T10:56:47;15.98;;;14.33;;
37065;SDS011;22981;43.080;25.550;2023-03-01T10:59:22;14.80;;;12.25;;
37065;SDS011;22981;43.080;25.550;2023-03-01T11:02:01;9.63;;;7.45;;
37065;SDS011;22981;43.080;25.550;2023-03-01T11:04:20;8.38;;;7.15;;
37065;SDS011;22981;43.080;25.550;2023-03-01T11:06:47;9.35;;;8.25;;
37065;SDS011;22981;43.080;25.550;2023-03-01T11:09:22;8.93;;;6.45;;
37065;SDS011;22981;43.080;25.550;2023-03-01T11:11:53;7.70;;;6.00;;
37065;SDS011;22981;43.080;25.550;2023-03-01T11:14:23;10.48;;;8.40;;
37065;SDS011;22981;43.080;25.550;2023-03-01T11:17:00;11.22;;;7.80;;
37065;SDS011;22981;43.080;25.550;2023-03-01T11:20:33;10.93;;;8.10;;
37065;SDS011;22981;43.080;25.550;2023-03-01T11:22:35;12.13;;;8.15;;
37065;SDS011;22981;43.080;25.550;2023-03-01T11:25:02;12.03;;;7.87;;
37065;SDS011;22981;43.080;25.550;2023-03-01T11:27:31;8.65;;;7.08;;
37065;SDS011;22981;43.080;25.550;2023-03-01T11:30:02;12.95;;;10.45;;
37065;SDS011;22981;43.080;25.550;2023-03-01T11:32:38;10.58;;;8.08;;
37065;SDS011;22981;43.080;25.550;2023-03-01T11:35:15;10.82;;;7.80;;
37065;SDS011;22981;43.080;25.550;2023-03-01T11:37:43;10.08;;;7.95;;
37065;SDS011;22981;43.080;25.550;2023-03-01T11:40:29;9.65;;;7.83;;
37065;SDS011;22981;43.080;25.550;2023-03-01T11:43:02;8.75;;;7.03;;
37065;SDS011;22981;43.080;25.550;2023-03-01T11:45:36;12.53;;;10.75;;
37065;SDS011;22981;43.080;25.550;2023-03-01T11:48:21;12.43;;;9.83;;
37065;SDS011;22981;43.080;25.550;2023-03-01T11:51:01;14.60;;;10.23;;
37065;SDS011;22981;43.080;25.550;2023-03-01T11:53:46;11.80;;;9.20;;
37065;SDS011;22981;43.080;25.550;2023-03-01T11:59:13;14.13;;;12.60;;
37065;SDS011;22981;43.080;25.550;2023-03-01T12:09:47;12.63;;;10.32;;
37065;SDS011;22981;43.080;25.550;2023-03-01T12:15:08;16.25;;;9.68;;
37065;SDS011;22981;43.080;25.550;2023-03-01T12:29:00;13.18;;;9.60;;
37065;SDS011;22981;43.080;25.550;2023-03-01T12:35:19;12.95;;;9.33;;
37065;SDS011;22981;43.080;25.550;2023-03-01T12:51:22;12.55;;;10.60;;
37065;SDS011;22981;43.080;25.550;2023-03-01T12:53:47;14.68;;;11.20;;
37065;SDS011;22981;43.080;25.550;2023-03-01T12:56:17;13.70;;;10.82;;
37065;SDS011;22981;43.080;25.550;2023-03-01T13:04:17;9.33;;;7.40;;
37065;SDS011;22981;43.080;25.550;2023-03-01T13:09:39;9.78;;;7.08;;
37065;SDS011;22981;43.080;25.550;2023-03-01T13:17:54;10.48;;;7.28;;
37065;SDS011;22981;43.080;25.550;2023-03-01T13:20:33;8.88;;;6.97;;
37065;SDS011;22981;43.080;25.550;2023-03-01T13:23:01;9.60;;;7.25;;
37065;SDS011;22981;43.080;25.550;2023-03-01T13:25:31;10.80;;;8.43;;
37065;SDS011;22981;43.080;25.550;2023-03-01T13:31:05;10.13;;;7.35;;
37065;SDS011;22981;43.080;25.550;2023-03-01T13:33:45;12.45;;;7.72;;
37065;SDS011;22981;43.080;25.550;2023-03-01T13:44:21;12.33;;;8.35;;
37065;SDS011;22981;43.080;25.550;2023-03-01T13:46:57;14.55;;;10.28;;
37065;SDS011;22981;43.080;25.550;2023-03-01T13:49:23;10.72;;;9.13;;
37065;SDS011;22981;43.080;25.550;2023-03-01T13:51:55;17.35;;;12.55;;
37065;SDS011;22981;43.080;25.550;2023-03-01T13:54:31;15.98;;;11.18;;
37065;SDS011;22981;43.080;25.550;2023-03-01T13:57:00;72.82;;;44.60;;
37065;SDS011;22981;43.080;25.550;2023-03-01T13:59:28;112.75;;;70.10;;
37065;SDS011;22981;43.080;25.550;2023-03-01T14:01:57;87.92;;;53.38;;
37065;SDS011;22981;43.080;25.550;2023-03-01T14:04:27;60.38;;;33.18;;
37065;SDS011;22981;43.080;25.550;2023-03-01T14:07:10;38.55;;;22.05;;
37065;SDS011;22981;43.080;25.550;2023-03-01T14:09:46;78.45;;;44.08;;
37065;SDS011;22981;43.080;25.550;2023-03-01T14:14:55;19.40;;;12.23;;
37065;SDS011;22981;43.080;25.550;2023-03-01T14:17:44;13.53;;;10.28;;
37065;SDS011;22981;43.080;25.550;2023-03-01T14:20:27;22.48;;;14.03;;
37065;SDS011;22981;43.080;25.550;2023-03-01T14:22:58;15.95;;;12.37;;
37065;SDS011;22981;43.080;25.550;2023-03-01T14:25:29;19.10;;;13.18;;
37065;SDS011;22981;43.080;25.550;2023-03-01T14:30:52;11.40;;;8.48;;
37065;SDS011;22981;43.080;25.550;2023-03-01T14:35:57;12.58;;;9.53;;
37065;SDS011;22981;43.080;25.550;2023-03-01T14:38:22;14.95;;;10.08;;
37065;SDS011;22981;43.080;25.550;2023-03-01T14:40:52;15.85;;;10.20;;
37065;SDS011;22981;43.080;25.550;2023-03-01T14:43:22;21.02;;;13.20;;
37065;SDS011;22981;43.080;25.550;2023-03-01T14:45:54;14.05;;;9.70;;
37065;SDS011;22981;43.080;25.550;2023-03-01T14:48:22;20.65;;;11.53;;
37065;SDS011;22981;43.080;25.550;2023-03-01T14:50:52;13.68;;;9.45;;
37065;SDS011;22981;43.080;25.550;2023-03-01T14:53:27;12.20;;;8.78;;
37065;SDS011;22981;43.080;25.550;2023-03-01T14:55:54;11.45;;;8.35;;
37065;SDS011;22981;43.080;25.550;2023-03-01T14:58:25;12.30;;;8.63;;
37065;SDS011;22981;43.080;25.550;2023-03-01T15:00:56;10.88;;;8.50;;
37065;SDS011;22981;43.080;25.550;2023-03-01T15:06:05;14.07;;;9.90;;
37065;SDS011;22981;43.080;25.550;2023-03-01T15:08:28;15.90;;;10.78;;
37065;SDS011;22981;43.080;25.550;2023-03-01T15:13:32;59.88;;;53.00;;
37065;SDS011;22981;43.080;25.550;2023-03-01T15:16:02;86.57;;;75.60;;
37065;SDS011;22981;43.080;25.550;2023-03-01T15:18:32;52.00;;;46.35;;
37065;SDS011;22981;43.080;25.550;2023-03-01T15:21:07;32.38;;;28.90;;
37065;SDS011;22981;43.080;25.550;2023-03-01T15:23:37;19.30;;;13.98;;
37065;SDS011;22981;43.080;25.550;2023-03-01T15:26:06;15.63;;;12.45;;
37065;SDS011;22981;43.080;25.550;2023-03-01T15:28:37;14.85;;;9.85;;
37065;SDS011;22981;43.080;25.550;2023-03-01T15:31:12;13.55;;;10.18;;
37065;SDS011;22981;43.080;25.550;2023-03-01T15:33:41;23.32;;;20.57;;
37065;SDS011;22981;43.080;25.550;2023-03-01T15:38:58;14.78;;;11.22;;
37065;SDS011;22981;43.080;25.550;2023-03-01T15:41:28;15.78;;;12.13;;
37065;SDS011;22981;43.080;25.550;2023-03-01T15:43:58;17.95;;;13.15;;
37065;SDS011;22981;43.080;25.550;2023-03-01T15:46:31;15.58;;;11.90;;
37065;SDS011;22981;43.080;25.550;2023-03-01T15:49:04;15.53;;;11.30;;
37065;SDS011;22981;43.080;25.550;2023-03-01T15:51:38;15.70;;;12.30;;
37065;SDS011;22981;43.080;25.550;2023-03-01T15:54:04;29.20;;;22.10;;
37065;SDS011;22981;43.080;25.550;2023-03-01T15:56:39;36.38;;;29.65;;
37065;SDS011;22981;43.080;25.550;2023-03-01T15:59:08;17.87;;;13.13;;
37065;SDS011;22981;43.080;25.550;2023-03-01T16:01:38;23.57;;;16.90;;
37065;SDS011;22981;43.080;25.550;2023-03-01T16:04:08;34.23;;;29.12;;
37065;SDS011;22981;43.080;25.550;2023-03-01T16:06:41;16.42;;;12.47;;
37065;SDS011;22981;43.080;25.550;2023-03-01T16:09:09;14.68;;;11.30;;
37065;SDS011;22981;43.080;25.550;2023-03-01T16:11:38;15.53;;;10.95;;
37065;SDS011;22981;43.080;25.550;2023-03-01T16:14:07;16.32;;;10.93;;
37065;SDS011;22981;43.080;25.550;2023-03-01T16:16:35;18.65;;;11.43;;
37065;SDS011;22981;43.080;25.550;2023-03-01T16:19:03;15.48;;;11.80;;
37065;SDS011;22981;43.080;25.550;2023-03-01T16:21:31;16.87;;;12.20;;
37065;SDS011;22981;43.080;25.550;2023-03-01T16:23:58;19.62;;;14.65;;
37065;SDS011;22981;43.080;25.550;2023-03-01T16:26:26;18.37;;;13.40;;
37065;SDS011;22981;43.080;25.550;2023-03-01T16:28:54;18.10;;;13.03;;
37065;SDS011;22981;43.080;25.550;2023-03-01T16:31:23;32.85;;;21.55;;